Time;durP1;ratioP1;P1;durP2;ratioP2;P2;SDS_P1;SDS_P2;PMS_P1;PMS_P2;Temp;Humidity;BMP_temperature;BMP_pressure;BME280_temperature;BME280_humidity;BME280_pressure;Samples;Min_cycle;Max_cycle;Signal;HPM_P1;HPM_P2
2022/06/06 07:09:49;;;;;;;2.97;1.83;;;28.20;95.50;;;;;;4972839;28;19917;-89
2022/06/06 07:12:37;;;;;;;2.33;1.63;;;28.80;92.10;;;;;;4980375;28;20068;-87
2022/06/06 07:15:23;;;;;;;3.13;2.35;;;28.60;91.90;;;;;;4978759;28;20088;-88
2022/06/06 07:18:02;;;;;;;4.40;1.88;;;28.50;91.30;;;;;;4965304;28;20022;-88
2022/06/06 07:20:34;;;;;;;4.07;2.22;;;28.20;91.40;;;;;;4976076;28;20029;-88
2022/06/06 07:23:09;;;;;;;3.17;1.98;;;27.50;91.30;;;;;;4968414;28;20361;-88
2022/06/06 07:25:39;;;;;;;2.30;2.10;;;26.80;92.90;;;;;;4977061;28;20053;-87
2022/06/06 07:28:21;;;;;;;3.55;2.15;;;26.40;93.60;;;;;;4969472;28;20126;-87
2022/06/06 07:31:27;;;;;;;3.33;2.08;;;26.60;93.80;;;;;;4979650;28;20030;-86
2022/06/06 07:34:34;;;;;;;2.00;1.80;;;26.60;93.80;;;;;;4979286;28;20097;-87
2022/06/06 07:37:01;;;;;;;6.32;1.95;;;26.80;92.80;;;;;;4976915;28;20025;-87
2022/06/06 07:40:09;;;;;;;2.75;1.90;;;27.20;92.70;;;;;;4968208;28;20026;-88
2022/06/06 07:43:03;;;;;;;1.90;1.80;;;27.70;91.70;;;;;;4981208;28;20053;-88
2022/06/06 07:45:48;;;;;;;3.78;1.90;;;27.80;90.90;;;;;;4961161;28;20530;-88
2022/06/06 07:48:23;;;;;;;2.03;1.83;;;27.90;90.40;;;;;;4972491;28;20030;-88
2022/06/06 07:51:12;;;;;;;1.75;1.63;;;27.90;90.10;;;;;;4974207;28;20029;-88
2022/06/06 07:54:08;;;;;;;2.33;1.70;;;27.90;89.50;;;;;;4972530;28;20022;-89
2022/06/06 08:00:18;;;;;;;3.05;1.92;;;27.50;90.30;;;;;;4980542;28;20245;-89
2022/06/06 08:03:09;;;;;;;2.33;2.03;;;27.90;88.50;;;;;;4975243;28;20026;-88
2022/06/06 08:06:17;;;;;;;1.83;1.70;;;28.30;88.10;;;;;;4968857;28;20035;-88
2022/06/06 08:09:05;;;;;;;1.60;1.50;;;28.60;85.00;;;;;;4969140;28;20113;-86
2022/06/06 08:11:50;;;;;;;3.00;1.60;;;28.80;85.10;;;;;;4952726;28;20645;-86
2022/06/06 08:14:56;;;;;;;2.07;1.60;;;29.00;83.50;;;;;;4983637;28;20109;-86
2022/06/06 08:17:30;;;;;;;3.88;1.60;;;28.90;82.80;;;;;;4981171;28;20232;-86
2022/06/06 08:20:48;;;;;;;1.95;1.70;;;28.80;84.30;;;;;;4979666;28;20543;-86
2022/06/06 08:23:16;;;;;;;;;;;28.60;82.40;;;;;;4984963;28;20097;-86
2022/06/06 08:25:44;;;;;;;3.20;1.60;;;28.10;83.80;;;;;;4971003;28;20578;-87
2022/06/06 08:28:12;;;;;;;2.38;1.83;;;27.60;84.70;;;;;;4981236;28;20041;-88
2022/06/06 08:30:44;;;;;;;3.25;1.90;;;27.40;84.90;;;;;;4969425;28;20029;-87
2022/06/06 08:33:18;;;;;;;1.88;1.67;;;27.10;85.40;;;;;;4972727;28;20034;-87
2022/06/06 08:36:08;;;;;;;2.13;1.70;;;27.30;85.60;;;;;;4970990;28;20030;-87
2022/06/06 08:39:21;;;;;;;3.72;1.75;;;27.30;84.80;;;;;;4952355;28;20596;-87
2022/06/06 08:42:09;;;;;;;1.35;1.25;;;27.80;84.50;;;;;;4941415;29;20082;-86
2022/06/06 08:45:12;;;;;;;1.75;1.27;;;28.20;83.70;;;;;;4941769;28;20108;-87
2022/06/06 08:48:06;;;;;;;1.35;1.20;;;29.50;80.70;;;;;;4984052;28;20109;-86
2022/06/06 08:50:59;;;;;;;1.48;1.38;;;30.10;77.40;;;;;;4981523;28;20030;-85
2022/06/06 08:53:46;;;;;;;1.40;1.25;;;30.60;76.50;;;;;;4979247;28;20528;-86
2022/06/06 08:56:40;;;;;;;1.52;1.42;;;30.70;75.50;;;;;;4964057;28;20034;-88
2022/06/06 08:59:21;;;;;;;1.40;1.30;;;31.00;74.50;;;;;;4986872;28;20050;-87
2022/06/06 09:02:26;;;;;;;1.48;1.38;;;31.90;73.00;;;;;;4967054;28;20018;-86
2022/06/06 09:05:29;;;;;;;1.98;1.58;;;32.20;70.70;;;;;;4991661;28;20034;-85
2022/06/06 09:08:29;;;;;;;1.40;1.30;;;32.30;68.90;;;;;;4986132;28;20110;-86
2022/06/06 09:11:34;;;;;;;1.55;1.20;;;31.60;71.00;;;;;;4985274;28;20022;-86
2022/06/06 09:14:15;;;;;;;3.25;1.80;;;32.30;69.70;;;;;;4986102;28;20038;-86
2022/06/06 09:17:16;;;;;;;1.55;1.40;;;33.00;67.60;;;;;;4961414;28;20030;-87
2022/06/06 09:20:28;;;;;;;2.72;1.40;;;33.60;65.80;;;;;;4985783;28;20104;-86
2022/06/06 09:23:21;;;;;;;1.20;1.10;;;34.30;65.00;;;;;;4974232;28;20120;-87
2022/06/06 09:26:23;;;;;;;2.95;1.58;;;34.70;63.20;;;;;;4986396;28;20018;-88
2022/06/06 09:29:32;;;;;;;1.17;1.13;;;34.90;61.50;;;;;;4974293;28;20056;-87
2022/06/06 09:32:22;;;;;;;2.55;1.35;;;34.80;62.10;;;;;;4984444;28;20022;-86
2022/06/06 09:35:06;;;;;;;2.17;1.27;;;34.30;61.80;;;;;;4986684;28;20038;-86
2022/06/06 09:37:31;;;;;;;2.33;1.33;;;34.40;61.40;;;;;;4958870;28;20065;-85
2022/06/06 09:40:21;;;;;;;1.88;1.35;;;34.70;60.90;;;;;;4983934;28;20053;-85
2022/06/06 09:43:10;;;;;;;1.95;1.30;;;34.50;60.50;;;;;;4967067;28;20021;-84
2022/06/06 09:45:52;;;;;;;1.95;1.50;;;34.10;60.60;;;;;;4978783;28;20018;-84
2022/06/06 09:48:48;;;;;;;1.85;1.38;;;33.40;62.30;;;;;;4974696;28;20014;-85
2022/06/06 09:51:25;;;;;;;1.67;1.45;;;32.80;62.80;;;;;;4955352;28;20038;-84
2022/06/06 10:00:31;;;;;;;1.42;1.33;;;34.30;60.00;;;;;;4982039;28;20065;-76
2022/06/06 10:03:21;;;;;;;1.90;1.40;;;34.80;59.90;;;;;;4986281;28;20495;-76
2022/06/06 10:06:25;;;;;;;1.70;1.58;;;34.60;59.50;;;;;;4984046;28;20164;-76
2022/06/06 10:09:19;;;;;;;2.08;1.42;;;33.40;60.20;;;;;;4979515;28;20108;-75
2022/06/06 10:12:07;;;;;;;1.92;1.50;;;32.30;62.10;;;;;;4977795;28;20267;-75
2022/06/06 10:14:57;;;;;;;2.67;1.40;;;32.50;62.10;;;;;;4978659;28;20030;-76
2022/06/06 10:18:03;;;;;;;1.80;1.55;;;32.30;62.60;;;;;;4975172;28;20494;-75
2022/06/06 10:20:58;;;;;;;1.60;1.50;;;31.60;63.00;;;;;;4954673;28;20031;-75
2022/06/06 10:23:30;;;;;;;2.17;1.98;;;30.20;65.40;;;;;;4984566;28;20025;-75
2022/06/06 10:26:18;;;;;;;2.63;1.65;;;29.30;67.50;;;;;;4981821;28;20029;-75
2022/06/06 10:32:16;;;;;;;1.65;1.55;;;29.10;68.50;;;;;;4979207;28;20026;-75
2022/06/06 10:34:52;;;;;;;4.15;1.60;;;29.00;69.20;;;;;;4979129;28;20493;-76
2022/06/06 10:37:57;;;;;;;2.80;1.52;;;29.20;69.70;;;;;;4971796;28;20415;-76
2022/06/06 10:40:37;;;;;;;2.20;1.58;;;29.10;69.80;;;;;;4978698;28;20026;-75
2022/06/06 10:43:19;;;;;;;1.85;1.70;;;28.70;69.80;;;;;;4985069;28;20642;-75
2022/06/06 10:46:02;;;;;;;1.70;1.60;;;28.80;70.30;;;;;;4985712;28;20044;-75
2022/06/06 10:48:57;;;;;;;1.70;1.50;;;29.30;69.70;;;;;;4979777;28;20372;-75
2022/06/06 10:51:37;;;;;;;3.08;1.70;;;29.80;68.30;;;;;;4976910;28;20073;-77
2022/06/06 10:54:15;;;;;;;1.55;1.45;;;30.10;67.20;;;;;;4976855;28;20033;-77
2022/06/06 10:57:00;;;;;;;1.70;1.60;;;30.50;67.30;;;;;;4977722;28;20085;-77
2022/06/06 11:00:14;;;;;;;2.88;1.60;;;30.70;66.90;;;;;;4989275;28;20100;-77
2022/06/06 11:02:53;;;;;;;1.80;1.70;;;30.50;68.20;;;;;;4968607;28;20045;-75
2022/06/06 11:05:37;;;;;;;2.08;1.50;;;30.20;68.80;;;;;;4966520;28;20022;-77
2022/06/06 11:08:37;;;;;;;3.83;1.48;;;30.10;67.40;;;;;;4983225;28;20018;-77
2022/06/06 11:11:47;;;;;;;1.60;1.50;;;29.70;68.00;;;;;;4986366;28;20022;-77
2022/06/06 11:14:26;;;;;;;1.85;1.40;;;29.30;67.20;;;;;;4990961;28;21038;-77
2022/06/06 11:17:18;;;;;;;1.60;1.50;;;29.10;69.00;;;;;;4976225;28;20073;-74
2022/06/06 11:19:59;;;;;;;2.22;1.77;;;29.10;71.40;;;;;;4961350;28;21619;-77
2022/06/06 11:22:27;;;;;;;1.80;1.67;;;29.00;68.70;;;;;;4980861;28;20054;-76
2022/06/06 11:25:16;;;;;;;1.85;1.58;;;28.90;70.10;;;;;;4970231;28;20048;-77
2022/06/06 11:28:14;;;;;;;1.60;1.50;;;28.80;69.60;;;;;;4976025;28;20153;-77
2022/06/06 11:31:04;;;;;;;1.50;1.40;;;28.70;69.30;;;;;;4977649;28;20638;-78
2022/06/06 11:34:05;;;;;;;3.55;1.95;;;28.30;70.10;;;;;;4975219;28;20025;-77
2022/06/06 11:36:58;;;;;;;3.63;2.10;;;28.10;72.30;;;;;;4955152;28;20589;-77
2022/06/06 11:40:03;;;;;;;1.83;1.50;;;28.20;69.80;;;;;;4958858;28;20027;-76
2022/06/06 11:42:44;;;;;;;1.85;1.73;;;28.40;71.00;;;;;;4961760;28;20050;-78
2022/06/06 11:45:29;;;;;;;2.58;1.77;;;28.40;70.60;;;;;;4960844;28;20759;-78
2022/06/06 11:48:34;;;;;;;2.10;1.75;;;28.00;71.10;;;;;;4981871;28;20030;-77
2022/06/06 11:51:33;;;;;;;2.42;1.73;;;27.80;72.00;;;;;;4981145;28;20041;-76
2022/06/06 11:54:06;;;;;;;2.70;2.10;;;27.80;73.20;;;;;;4960331;28;20022;-76
2022/06/06 11:57:17;;;;;;;3.90;1.90;;;27.70;72.90;;;;;;4976180;28;20027;-77
2022/06/06 12:00:07;;;;;;;2.00;1.63;;;27.90;72.30;;;;;;4981059;28;20858;-77
2022/06/06 12:03:07;;;;;;;2.75;1.80;;;28.10;73.20;;;;;;4979494;28;20026;-78
2022/06/06 12:06:12;;;;;;;2.15;1.95;;;28.20;71.60;;;;;;4976366;28;20034;-77
2022/06/06 12:09:03;;;;;;;2.40;1.98;;;27.90;71.80;;;;;;4977457;28;20502;-89
2022/06/06 12:12:04;;;;;;;2.22;1.90;;;27.70;71.60;;;;;;4969895;28;20640;-88
2022/06/06 12:14:34;;;;;;;3.33;1.90;;;27.70;72.50;;;;;;4991236;28;20029;-89
2022/06/06 12:17:12;;;;;;;5.70;2.00;;;27.70;71.60;;;;;;4991546;28;20021;-78
2022/06/06 12:20:23;;;;;;;2.55;2.00;;;27.70;71.00;;;;;;4966051;28;20026;-79
2022/06/06 12:23:07;;;;;;;3.67;1.85;;;27.90;72.40;;;;;;4979681;28;20839;-77
2022/06/06 12:25:58;;;;;;;2.00;1.77;;;28.00;71.30;;;;;;4980298;28;20030;-75
2022/06/06 12:28:48;;;;;;;5.97;2.13;;;27.90;71.50;;;;;;4981892;28;20729;-77
2022/06/06 12:31:42;;;;;;;3.45;1.80;;;27.70;72.10;;;;;;4983235;28;21096;-77
2022/06/06 12:34:16;;;;;;;3.47;1.70;;;27.70;72.50;;;;;;4983409;28;20022;-75
2022/06/06 12:36:58;;;;;;;4.28;2.05;;;27.70;71.40;;;;;;4968326;28;20031;-75
2022/06/06 12:39:35;;;;;;;2.05;1.90;;;27.70;73.20;;;;;;4973522;28;20382;-74
2022/06/06 12:42:13;;;;;;;2.10;1.88;;;27.60;73.50;;;;;;4985208;28;20026;-77
2022/06/06 12:45:00;;;;;;;1.83;1.73;;;27.70;72.80;;;;;;4984771;28;20033;-77
2022/06/06 12:48:12;;;;;;;1.95;1.85;;;28.10;72.50;;;;;;4981485;28;20018;-76
2022/06/06 12:50:43;;;;;;;2.00;1.80;;;28.30;71.50;;;;;;4963368;28;20182;-78
2022/06/06 12:53:30;;;;;;;2.50;1.90;;;28.40;71.10;;;;;;4987348;28;20026;-77
2022/06/06 12:58:40;;;;;;;4.30;2.00;;;28.50;71.30;;;;;;4987857;28;19917;-78
2022/06/06 13:01:45;;;;;;;5.22;2.03;;;28.40;72.80;;;;;;4984585;28;20468;-77
2022/06/06 13:04:25;;;;;;;2.30;1.95;;;28.00;72.70;;;;;;4973505;28;20046;-77
2022/06/06 13:07:27;;;;;;;2.10;1.90;;;27.80;72.80;;;;;;4981716;28;20602;-77
2022/06/06 13:10:12;;;;;;;2.53;2.33;;;27.60;74.20;;;;;;4970139;28;20089;-75
2022/06/06 13:12:58;;;;;;;2.67;2.05;;;27.60;72.80;;;;;;4981752;28;20022;-80
2022/06/06 13:15:53;;;;;;;1.92;1.83;;;27.70;72.90;;;;;;4982447;28;20026;-77
2022/06/06 13:18:22;;;;;;;1.83;1.60;;;27.70;73.40;;;;;;4992399;28;20041;-78
2022/06/06 13:21:02;;;;;;;3.47;2.00;;;27.80;73.70;;;;;;4974266;28;20025;-77
2022/06/06 13:23:40;;;;;;;2.05;1.95;;;27.70;73.70;;;;;;4976279;28;20094;-77
2022/06/06 13:26:36;;;;;;;2.17;1.88;;;27.50;74.10;;;;;;4984068;28;20022;-76
2022/06/06 13:29:06;;;;;;;2.33;2.10;;;27.20;74.10;;;;;;4978091;28;20444;-76
2022/06/06 13:32:03;;;;;;;2.92;2.22;;;27.00;75.10;;;;;;4966564;28;20117;-76
2022/06/06 13:34:52;;;;;;;2.22;2.00;;;26.90;76.60;;;;;;4977350;28;20045;-77
2022/06/06 13:37:27;;;;;;;2.10;1.90;;;26.70;77.30;;;;;;4963322;28;20026;-76
2022/06/06 13:40:04;;;;;;;3.28;2.17;;;26.80;77.70;;;;;;4956457;28;20058;-76
2022/06/06 13:42:59;;;;;;;2.22;2.08;;;26.90;77.60;;;;;;4980851;28;20408;-76
2022/06/06 13:45:50;;;;;;;2.65;1.88;;;27.10;75.20;;;;;;4944514;28;20042;-76
2022/06/06 13:48:28;;;;;;;4.63;1.80;;;27.30;74.20;;;;;;4968747;28;20026;-77
2022/06/06 13:51:29;;;;;;;3.97;2.00;;;27.30;74.10;;;;;;4954881;28;20022;-77
2022/06/06 13:54:33;;;;;;;2.45;2.08;;;27.30;73.90;;;;;;4973724;28;20015;-77
2022/06/06 13:57:23;;;;;;;3.22;2.83;;;27.40;73.60;;;;;;4986275;28;20033;-75
2022/06/06 14:00:07;;;;;;;1.95;1.58;;;27.50;73.20;;;;;;4978877;28;20054;-76
2022/06/06 14:03:16;;;;;;;2.35;1.90;;;27.60;72.20;;;;;;4984701;28;20022;-77
2022/06/06 14:06:02;;;;;;;2.50;1.70;;;27.60;72.80;;;;;;4984544;28;20034;-76
2022/06/06 14:08:50;;;;;;;2.83;1.90;;;27.70;73.10;;;;;;4960506;28;20015;-76
2022/06/06 14:11:33;;;;;;;3.22;2.20;;;27.70;71.70;;;;;;4967156;28;20037;-77
2022/06/06 14:14:01;;;;;;;2.30;2.00;;;27.60;71.80;;;;;;4975370;28;20220;-75
2022/06/06 14:16:34;;;;;;;2.08;1.88;;;27.50;72.20;;;;;;4982827;28;20030;-75
2022/06/06 14:19:18;;;;;;;2.05;1.90;;;27.40;72.00;;;;;;4961069;28;20079;-76
2022/06/06 14:21:57;;;;;;;6.05;1.92;;;27.30;71.90;;;;;;4966746;28;20223;-78
2022/06/06 14:24:26;;;;;;;4.03;2.33;;;27.20;72.10;;;;;;4979105;28;20018;-77
2022/06/06 14:27:00;;;;;;;2.65;1.80;;;27.10;72.50;;;;;;4967772;28;20030;-77
2022/06/06 14:29:39;;;;;;;1.77;1.60;;;27.10;71.60;;;;;;4963921;28;20026;-77
2022/06/06 14:32:43;;;;;;;2.08;1.85;;;27.00;72.60;;;;;;4984614;28;20021;-77
2022/06/06 14:35:15;;;;;;;4.45;1.90;;;27.10;72.30;;;;;;4984470;28;20026;-79
2022/06/06 14:37:41;;;;;;;4.13;1.95;;;27.20;71.70;;;;;;4958640;28;20035;-76
2022/06/06 14:40:11;;;;;;;2.08;1.90;;;27.30;72.00;;;;;;4961362;28;20113;-76
2022/06/06 14:42:45;;;;;;;2.10;1.90;;;27.20;71.30;;;;;;4968169;28;20517;-75
2022/06/06 14:45:25;;;;;;;2.80;1.90;;;27.30;71.80;;;;;;4981121;28;20023;-76
2022/06/06 14:48:04;;;;;;;2.97;1.50;;;27.20;72.60;;;;;;4961346;28;20025;-77
2022/06/06 14:50:46;;;;;;;2.30;1.88;;;27.20;71.50;;;;;;4982500;28;20076;-77
2022/06/06 14:53:21;;;;;;;2.55;1.80;;;27.20;72.30;;;;;;4986526;28;20062;-77
2022/06/06 14:55:51;;;;;;;2.03;1.90;;;27.20;72.00;;;;;;4976118;28;20026;-75
2022/06/06 14:58:21;;;;;;;3.03;1.70;;;27.20;73.00;;;;;;4982702;28;20041;-77
2022/06/06 15:00:59;;;;;;;2.92;1.70;;;27.10;71.80;;;;;;4983699;28;20045;-77
2022/06/06 15:03:45;;;;;;;2.33;1.80;;;27.00;72.00;;;;;;4977950;28;20094;-76
2022/06/06 15:06:15;;;;;;;3.08;2.00;;;26.90;71.90;;;;;;4980493;28;20038;-76
2022/06/06 15:09:04;;;;;;;6.13;1.83;;;26.90;71.10;;;;;;4984678;28;20080;-76
2022/06/06 15:11:32;;;;;;;3.60;1.83;;;26.90;71.50;;;;;;4974327;28;20025;-76
2022/06/06 15:14:12;;;;;;;4.25;2.05;;;26.90;71.60;;;;;;4981431;28;20025;-76
2022/06/06 15:16:42;;;;;;;4.05;1.67;;;26.70;70.60;;;;;;4980793;28;20053;-77
2022/06/06 15:19:22;;;;;;;2.35;1.90;;;26.60;71.20;;;;;;4983453;28;20022;-76
2022/06/06 15:21:51;;;;;;;2.42;1.75;;;26.60;71.80;;;;;;4983138;28;20057;-76
2022/06/06 15:24:25;;;;;;;2.17;1.70;;;26.60;69.50;;;;;;4976106;28;20501;-76
2022/06/06 15:27:07;;;;;;;3.10;2.10;;;26.70;70.30;;;;;;4980684;28;20025;-76
2022/06/06 15:29:49;;;;;;;3.35;2.10;;;26.40;71.00;;;;;;4963130;28;20830;-76
2022/06/06 15:32:28;;;;;;;2.45;2.17;;;26.40;72.50;;;;;;4975076;28;20057;-77
2022/06/06 15:35:13;;;;;;;2.53;1.80;;;26.50;72.10;;;;;;4973849;28;20011;-76
2022/06/06 15:37:51;;;;;;;2.90;1.92;;;26.50;72.20;;;;;;4986091;28;20025;-76
2022/06/06 15:40:29;;;;;;;2.08;1.80;;;26.50;72.40;;;;;;4962459;28;20790;-77
2022/06/06 15:43:22;;;;;;;2.17;1.73;;;26.50;73.10;;;;;;4964411;28;20627;-78
2022/06/06 15:46:06;;;;;;;5.75;2.25;;;26.50;72.10;;;;;;4981616;28;20034;-77
2022/06/06 15:48:38;;;;;;;2.58;1.63;;;26.40;72.70;;;;;;4972543;28;20134;-77
2022/06/06 15:51:23;;;;;;;4.25;1.98;;;26.30;72.30;;;;;;4980238;28;20025;-78
2022/06/06 15:53:59;;;;;;;2.00;1.60;;;26.30;72.90;;;;;;4977602;28;20018;-78
2022/06/06 15:56:56;;;;;;;3.63;1.60;;;26.30;71.40;;;;;;4973050;28;20049;-80
2022/06/06 15:59:46;;;;;;;5.53;2.00;;;26.40;73.20;;;;;;4973036;28;20029;-79
2022/06/06 16:02:36;;;;;;;3.47;1.80;;;26.50;73.30;;;;;;4980000;28;20038;-77
2022/06/06 16:05:23;;;;;;;2.83;1.70;;;26.50;73.20;;;;;;4960552;28;20121;-76
2022/06/06 16:07:59;;;;;;;2.63;1.98;;;26.50;73.00;;;;;;4985381;28;20108;-77
2022/06/06 16:10:49;;;;;;;2.70;1.85;;;26.40;73.70;;;;;;4974789;28;20087;-75
2022/06/06 16:13:35;;;;;;;2.85;1.60;;;26.30;73.90;;;;;;4979094;28;20044;-77
2022/06/06 16:16:12;;;;;;;2.25;1.73;;;26.20;74.10;;;;;;4984297;28;20442;-78
2022/06/06 16:18:50;;;;;;;1.73;1.63;;;26.30;73.40;;;;;;4975262;28;20026;-78
2022/06/06 16:21:18;;;;;;;3.35;1.80;;;26.30;72.40;;;;;;4983343;28;20038;-76
2022/06/06 16:23:51;;;;;;;5.55;1.70;;;26.20;73.50;;;;;;4976709;28;20023;-77
2022/06/06 16:26:21;;;;;;;1.92;1.65;;;26.20;73.00;;;;;;4984804;28;20022;-77
2022/06/06 16:28:59;;;;;;;1.88;1.77;;;26.40;72.40;;;;;;4983310;28;20073;-76
2022/06/06 16:31:38;;;;;;;2.17;1.58;;;26.40;72.90;;;;;;4970820;28;20046;-75
2022/06/06 16:34:20;;;;;;;2.28;1.65;;;26.40;74.20;;;;;;4982399;28;20042;-76
2022/06/06 16:36:54;;;;;;;3.97;1.83;;;26.30;74.70;;;;;;4977081;28;20031;-76
2022/06/06 16:39:32;;;;;;;2.42;1.95;;;26.30;74.10;;;;;;4985530;28;20030;-78
2022/06/06 16:48:26;;;;;;;3.78;1.88;;;26.30;72.70;;;;;;4987072;28;20036;-79
2022/06/06 16:51:12;;;;;;;;;;;26.40;72.70;;;;;;4980037;28;20019;-75
2022/06/06 16:54:01;;;;;;;3.17;2.83;;;26.30;74.20;;;;;;4978927;28;19933;-75
2022/06/06 16:56:57;;;;;;;1.55;1.45;;;26.20;74.00;;;;;;4975552;28;20468;-75
2022/06/06 16:59:47;;;;;;;3.70;1.95;;;26.20;73.10;;;;;;4980969;28;20026;-75
2022/06/06 17:02:33;;;;;;;1.77;1.67;;;26.20;73.40;;;;;;4983959;28;20023;-75
2022/06/06 17:07:45;;;;;;;2.05;1.85;;;26.10;76.60;;;;;;4980183;28;20041;-76
2022/06/06 17:08:30;;;;;;;6.60;2.15;;;26.00;74.10;;;;;;4985196;28;21505;-75
2022/06/06 17:11:34;;;;;;;5.30;2.13;;;26.00;76.40;;;;;;4986458;28;20092;-76
2022/06/06 17:14:04;;;;;;;1.70;1.58;;;25.90;78.20;;;;;;4961681;28;20038;-75
2022/06/06 17:16:34;;;;;;;2.45;2.10;;;25.80;79.30;;;;;;4977290;28;20506;-77
2022/06/06 17:19:14;;;;;;;4.10;2.13;;;25.80;79.70;;;;;;4965069;28;20042;-80
2022/06/06 17:21:49;;;;;;;2.28;2.00;;;25.80;80.70;;;;;;4960604;28;20061;-79
2022/06/06 17:24:24;;;;;;;3.27;2.27;;;25.70;79.70;;;;;;4964315;28;20056;-74
2022/06/06 17:26:57;;;;;;;5.03;2.22;;;25.80;79.10;;;;;;4987374;28;20113;-76
2022/06/06 17:29:51;;;;;;;3.95;2.22;;;25.80;79.50;;;;;;4982408;28;20033;-73
2022/06/06 17:32:44;;;;;;;3.35;2.00;;;25.70;81.00;;;;;;4984083;28;20077;-74
2022/06/06 17:35:18;;;;;;;2.05;1.83;;;25.70;78.20;;;;;;4978941;28;20014;-74
2022/06/06 17:38:07;;;;;;;2.47;2.13;;;25.60;77.50;;;;;;4985228;28;20027;-76
2022/06/06 17:40:46;;;;;;;2.25;1.90;;;25.60;77.20;;;;;;4977040;28;20708;-77
2022/06/06 17:43:43;;;;;;;2.03;1.73;;;25.50;78.40;;;;;;4965248;28;20101;-76
2022/06/06 17:46:27;;;;;;;3.35;2.25;;;25.50;79.00;;;;;;4942593;28;20045;-76
2022/06/06 17:49:02;;;;;;;2.30;2.10;;;25.40;79.70;;;;;;4945535;28;20027;-76
2022/06/06 17:51:51;;;;;;;1.80;1.65;;;25.40;80.40;;;;;;4964338;28;20500;-77
2022/06/06 17:54:36;;;;;;;2.58;2.10;;;25.30;81.00;;;;;;4984464;28;20026;-76
2022/06/06 17:57:14;;;;;;;4.30;1.83;;;25.20;80.40;;;;;;4964297;28;20026;-75
2022/06/06 17:59:47;;;;;;;1.95;1.83;;;25.10;82.70;;;;;;4962319;28;20034;-76
2022/06/06 18:02:47;;;;;;;2.58;1.77;;;25.00;84.70;;;;;;4979968;28;20030;-76
2022/06/06 18:05:15;;;;;;;2.20;2.00;;;24.90;86.60;;;;;;4964535;28;20101;-77
2022/06/06 18:08:13;;;;;;;2.33;2.00;;;24.80;87.10;;;;;;4958583;28;20026;-76
2022/06/06 18:10:57;;;;;;;;;;;24.80;87.80;;;;;;4976921;28;20547;-77
2022/06/06 18:13:40;;;;;;;2.85;2.20;;;24.70;87.90;;;;;;4984214;28;19959;-77
2022/06/06 18:16:15;;;;;;;3.08;2.33;;;24.70;88.50;;;;;;4984860;28;20030;-77
2022/06/06 18:19:05;;;;;;;2.40;2.17;;;24.60;89.00;;;;;;4961084;28;20030;-77
2022/06/06 18:21:45;;;;;;;2.85;2.13;;;24.50;89.90;;;;;;4962388;28;20022;-76
2022/06/06 18:24:29;;;;;;;2.40;2.20;;;24.40;90.20;;;;;;4980272;28;20137;-79
2022/06/06 18:27:02;;;;;;;2.85;1.90;;;24.30;90.60;;;;;;4979536;28;20077;-76
2022/06/06 18:29:42;;;;;;;3.13;2.35;;;24.10;90.70;;;;;;4969257;28;20018;-78
2022/06/06 18:32:11;;;;;;;2.45;2.10;;;24.00;90.90;;;;;;4979329;28;20022;-77
2022/06/06 18:34:59;;;;;;;2.40;2.20;;;23.90;91.30;;;;;;4980615;28;20036;-78
2022/06/06 18:37:42;;;;;;;2.78;2.20;;;23.80;91.40;;;;;;4958831;28;20069;-78
2022/06/06 18:40:41;;;;;;;3.22;2.47;;;23.70;91.40;;;;;;4991587;28;20081;-77
2022/06/06 18:43:22;;;;;;;2.90;1.90;;;23.70;91.50;;;;;;4965166;28;20049;-77
2022/06/06 18:45:50;;;;;;;1.98;1.80;;;23.60;91.90;;;;;;4979903;28;20097;-77
2022/06/06 18:48:20;;;;;;;2.05;1.95;;;23.50;91.60;;;;;;4967800;28;20050;-77
2022/06/06 18:50:59;;;;;;;2.47;1.98;;;23.40;91.40;;;;;;4980979;28;20028;-76
2022/06/06 18:53:39;;;;;;;3.53;2.10;;;23.40;92.00;;;;;;4982925;28;20383;-76
2022/06/06 18:56:26;;;;;;;2.10;1.90;;;23.30;91.80;;;;;;4985630;28;20455;-76
2022/06/06 18:59:37;;;;;;;2.13;2.00;;;23.30;92.30;;;;;;4959095;28;20124;-77
2022/06/06 19:02:29;;;;;;;3.75;2.30;;;23.20;92.60;;;;;;4976468;28;20026;-76
2022/06/06 19:05:03;;;;;;;2.80;2.13;;;23.10;92.70;;;;;;4977596;28;20558;-76
2022/06/06 19:07:36;;;;;;;3.13;1.63;;;23.00;93.10;;;;;;4966031;28;20045;-76
2022/06/06 19:10:10;;;;;;;2.65;2.13;;;23.00;93.30;;;;;;4969684;28;20117;-76
2022/06/06 19:12:38;;;;;;;2.17;1.90;;;22.90;93.30;;;;;;4978768;28;20030;-76
2022/06/06 19:15:29;;;;;;;2.22;2.03;;;22.80;93.40;;;;;;4990644;28;20073;-77
2022/06/06 19:18:03;;;;;;;2.20;2.00;;;22.80;93.70;;;;;;4965412;28;20128;-76
2022/06/06 19:20:46;;;;;;;2.42;2.08;;;22.80;93.70;;;;;;4979513;28;20080;-76
2022/06/06 19:23:26;;;;;;;2.00;1.80;;;22.70;93.80;;;;;;4984100;28;20035;-76
2022/06/06 19:26:03;;;;;;;3.90;2.10;;;22.70;94.20;;;;;;4982485;28;20018;-77
2022/06/06 19:28:38;;;;;;;3.22;1.98;;;22.60;94.20;;;;;;4975835;28;20019;-76
2022/06/06 19:57:57;;;;;;;2.70;1.98;;;21.90;97.10;;;;;;6099264;23;20015;-76
